Wetterdaten: Woche 24.02.14 - 02.03.14 (KW9)
Datum Zeit Temp. Aussen +5cm Feuchte Auss Luftdruck Regen Sonnenschein Regendauer UV Solar Windben
24.02.2014 00:00 4,3 C 2,5 C 88 % 1017,5 hPa 0,0 l/m 0,00 h 0,00 h 0,0 UV-I 0 W/m 9,3 km/h (2 Bft)
24.02.2014 01:00 4,6 C 2,8 C 87 % 1016,8 hPa 0,0 l/m 0,00 h 0,00 h 0,0 UV-I 0 W/m 15,5 km/h (3 Bft)
24.02.2014 02:00 4,5 C 2,8 C 87 % 1016,1 hPa 0,0 l/m 0,00 h 0,00 h 0,0 UV-I 0 W/m 17,8 km/h (3 Bft)
24.02.2014 03:00 4,2 C 2,6 C 88 % 1015,4 hPa 0,0 l/m 0,00 h 0,00 h 0,0 UV-I 0 W/m 15,4 km/h (3 Bft)
24.02.2014 04:00 3,9 C 2,2 C 88 % 1014,7 hPa 0,0 l/m 0,00 h 0,00 h 0,0 UV-I 0 W/m 14,3 km/h (3 Bft)
24.02.2014 05:00 3,8 C 2,2 C 88 % 1014,3 hPa 0,0 l/m 0,00 h 0,00 h 0,0 UV-I 0 W/m 15,3 km/h (3 Bft)
24.02.2014 06:00 3,5 C 1,8 C 88 % 1014,2 hPa 0,0 l/m 0,00 h 0,00 h 0,0 UV-I 0 W/m 13,6 km/h (3 Bft)
24.02.2014 07:00 3,6 C 2,0 C 87 % 1013,9 hPa 0,0 l/m 0,13 h 0,00 h 0,0 UV-I 13 W/m 14,6 km/h (3 Bft)
24.02.2014 08:00 4,3 C 2,8 C 86 % 1014,2 hPa 0,0 l/m 0,37 h 0,00 h 0,0 UV-I 72 W/m 18,5 km/h (3 Bft)
24.02.2014 09:00 5,8 C 4,4 C 82 % 1013,9 hPa 0,0 l/m 1,00 h 0,00 h 0,0 UV-I 209 W/m 22,6 km/h (4 Bft)
24.02.2014 10:00 7,9 C 6,5 C 76 % 1013,3 hPa 0,0 l/m 1,00 h 0,00 h 0,0 UV-I 316 W/m 23,6 km/h (4 Bft)
24.02.2014 11:00 10,0 C 8,7 C 70 % 1012,9 hPa 0,0 l/m 1,00 h 0,00 h 0,5 UV-I 375 W/m 23,9 km/h (4 Bft)
24.02.2014 12:00 11,8 C 10,5 C 65 % 1012,4 hPa 0,0 l/m 1,00 h 0,00 h 0,6 UV-I 405 W/m 23,2 km/h (4 Bft)
24.02.2014 13:00 13,3 C 11,7 C 62 % 1011,6 hPa 0,0 l/m 1,00 h 0,00 h 0,7 UV-I 429 W/m 20,5 km/h (4 Bft)
24.02.2014 14:00 14,4 C 12,6 C 58 % 1011,1 hPa 0,0 l/m 1,00 h 0,00 h 0,5 UV-I 368 W/m 17,8 km/h (3 Bft)
24.02.2014 15:00 14,9 C 12,8 C 52 % 1010,8 hPa 0,0 l/m 1,00 h 0,00 h 0,0 UV-I 265 W/m 15,8 km/h (3 Bft)
24.02.2014 16:00 14,2 C 12,0 C 54 % 1010,9 hPa 0,0 l/m 0,73 h 0,00 h 0,0 UV-I 148 W/m 10,0 km/h (2 Bft)
24.02.2014 17:00 12,9 C 10,0 C 59 % 1011,2 hPa 0,0 l/m 0,00 h 0,00 h 0,0 UV-I 31 W/m 5,4 km/h (1 Bft)
24.02.2014 18:00 11,0 C 7,7 C 66 % 1011,4 hPa 0,0 l/m 0,00 h 0,00 h 0,0 UV-I 6 W/m 5,0 km/h (1 Bft)
24.02.2014 19:00 9,9 C 7,3 C 71 % 1011,6 hPa 0,0 l/m 0,00 h 0,00 h 0,0 UV-I 0 W/m 11,1 km/h (2 Bft)
24.02.2014 20:00 9,6 C 7,2 C 72 % 1011,6 hPa 0,0 l/m 0,00 h 0,00 h 0,0 UV-I 0 W/m 12,6 km/h (3 Bft)
24.02.2014 21:00 8,6 C 6,0 C 75 % 1011,7 hPa 0,0 l/m 0,00 h 0,00 h 0,0 UV-I 0 W/m 3,6 km/h (1 Bft)
24.02.2014 22:00 7,8 C 5,6 C 77 % 1011,6 hPa 0,0 l/m 0,00 h 0,00 h 0,0 UV-I 0 W/m 9,3 km/h (2 Bft)
24.02.2014 23:00 7,0 C 4,9 C 80 % 1011,2 hPa 0,0 l/m 0,00 h 0,00 h 0,0 UV-I 0 W/m 6,8 km/h (2 Bft)
25.02.2014 00:00 6,5 C 4,4 C 82 % 1011,0 hPa 0,0 l/m 0,00 h 0,00 h 0,0 UV-I 0 W/m 9,1 km/h (2 Bft)
25.02.2014 01:00 6,2 C 4,4 C 83 % 1010,6 hPa 0,0 l/m 0,00 h 0,00 h 0,0 UV-I 0 W/m 11,2 km/h (2 Bft)
25.02.2014 02:00 5,9 C 4,0 C 85 % 1010,1 hPa 0,0 l/m 0,00 h 0,00 h 0,0 UV-I 0 W/m 8,4 km/h (2 Bft)
25.02.2014 03:00 5,9 C 4,2 C 85 % 1009,6 hPa 0,0 l/m 0,00 h 0,00 h 0,0 UV-I 0 W/m 11,6 km/h (2 Bft)
25.02.2014 04:00 5,6 C 3,8 C 86 % 1009,3 hPa 0,0 l/m 0,00 h 0,00 h 0,0 UV-I 0 W/m 6,8 km/h (2 Bft)
25.02.2014 05:00 5,6 C 3,9 C 86 % 1009,1 hPa 0,0 l/m 0,00 h 0,00 h 0,0 UV-I 0 W/m 10,6 km/h (2 Bft)
25.02.2014 06:00 5,4 C 3,7 C 87 % 1008,9 hPa 0,0 l/m 0,00 h 0,00 h 0,0 UV-I 0 W/m 12,0 km/h (2 Bft)
25.02.2014 07:00 5,3 C 3,6 C 87 % 1008,9 hPa 0,0 l/m 0,00 h 0,00 h 0,0 UV-I 14 W/m 13,2 km/h (3 Bft)
25.02.2014 08:00 6,1 C 4,7 C 86 % 1008,9 hPa 0,0 l/m 0,20 h 0,00 h 0,0 UV-I 73 W/m 13,1 km/h (3 Bft)
25.02.2014 09:00 7,7 C 6,7 C 82 % 1008,7 hPa 0,0 l/m 0,17 h 0,00 h 0,0 UV-I 107 W/m 14,6 km/h (3 Bft)
25.02.2014 10:00 9,1 C 8,3 C 79 % 1008,4 hPa 0,0 l/m 0,07 h 0,00 h 0,0 UV-I 144 W/m 16,1 km/h (3 Bft)
25.02.2014 11:00 9,9 C 8,7 C 75 % 1008,4 hPa 0,0 l/m 0,00 h 0,00 h 0,0 UV-I 84 W/m 15,2 km/h (3 Bft)
25.02.2014 12:00 10,5 C 9,7 C 75 % 1008,6 hPa 0,0 l/m 0,03 h 0,00 h 0,6 UV-I 165 W/m 10,5 km/h (2 Bft)
25.02.2014 13:00 12,2 C 11,2 C 69 % 1008,2 hPa 0,0 l/m 0,07 h 0,00 h 0,5 UV-I 174 W/m 17,7 km/h (3 Bft)
25.02.2014 14:00 12,1 C 10,8 C 69 % 1008,0 hPa 0,0 l/m 0,00 h 0,00 h 0,0 UV-I 105 W/m 15,5 km/h (3 Bft)
25.02.2014 15:00 11,6 C 10,0 C 70 % 1008,1 hPa 0,0 l/m 0,00 h 0,00 h 0,0 UV-I 46 W/m 17,2 km/h (3 Bft)
25.02.2014 16:00 11,2 C 9,4 C 74 % 1008,1 hPa 0,0 l/m 0,00 h 0,00 h 0,0 UV-I 21 W/m 7,6 km/h (2 Bft)
25.02.2014 17:00 11,2 C 9,3 C 72 % 1008,3 hPa 0,0 l/m 0,00 h 0,00 h 0,0 UV-I 10 W/m 11,7 km/h (2 Bft)
25.02.2014 18:00 10,1 C 8,0 C 76 % 1008,5 hPa 0,0 l/m 0,00 h 0,00 h 0,0 UV-I 5 W/m 11,1 km/h (2 Bft)
25.02.2014 19:00 10,0 C 8,2 C 77 % 1008,7 hPa 0,0 l/m 0,00 h 0,00 h 0,0 UV-I 0 W/m 20,1 km/h (4 Bft)
25.02.2014 20:00 10,0 C 8,2 C 77 % 1008,7 hPa 0,0 l/m 0,00 h 0,00 h 0,0 UV-I 0 W/m 18,6 km/h (3 Bft)
25.02.2014 21:00 10,0 C 8,2 C 77 % 1009,0 hPa 0,0 l/m 0,00 h 0,07 h 0,0 UV-I 0 W/m 21,4 km/h (4 Bft)
25.02.2014 22:00 9,4 C 7,6 C 81 % 1009,0 hPa 0,0 l/m 0,00 h 0,10 h 0,0 UV-I 0 W/m 16,0 km/h (3 Bft)
25.02.2014 23:00 8,7 C 6,8 C 86 % 1009,8 hPa 0,2 l/m 0,00 h 0,73 h 0,0 UV-I 0 W/m 9,9 km/h (2 Bft)
26.02.2014 00:00 7,7 C 5,7 C 92 % 1010,1 hPa 0,0 l/m 0,00 h 0,03 h 0,0 UV-I 0 W/m 1,8 km/h (1 Bft)
26.02.2014 01:00 8,1 C 6,1 C 90 % 1010,4 hPa 0,0 l/m 0,00 h 0,30 h 0,0 UV-I 0 W/m 3,9 km/h (1 Bft)
26.02.2014 02:00 7,9 C 5,7 C 91 % 1010,7 hPa 0,0 l/m 0,00 h 0,10 h 0,0 UV-I 0 W/m 0,2 km/h (0 Bft)
26.02.2014 03:00 7,6 C 5,7 C 93 % 1011,1 hPa 1,8 l/m 0,00 h 1,00 h 0,0 UV-I 0 W/m 4,3 km/h (1 Bft)
26.02.2014 04:00 7,2 C 5,6 C 95 % 1011,4 hPa 0,2 l/m 0,00 h 0,93 h 0,0 UV-I 0 W/m 0,3 km/h (0 Bft)
26.02.2014 05:00 7,1 C 5,6 C 97 % 1011,8 hPa 0,2 l/m 0,00 h 0,60 h 0,0 UV-I 0 W/m 1,4 km/h (1 Bft)
26.02.2014 06:00 6,8 C 5,5 C 97 % 1012,4 hPa 0,0 l/m 0,00 h 0,00 h 0,0 UV-I 0 W/m 1,0 km/h (0 Bft)
26.02.2014 07:00 6,6 C 5,0 C 97 % 1013,1 hPa 0,0 l/m 0,00 h 0,00 h 0,0 UV-I 12 W/m 0,3 km/h (0 Bft)
26.02.2014 08:00 7,0 C 5,9 C 97 % 1013,7 hPa 0,0 l/m 0,10 h 0,00 h 0,0 UV-I 68 W/m 0,0 km/h (0 Bft)
26.02.2014 09:00 7,8 C 6,5 C 96 % 1014,4 hPa 0,0 l/m 0,37 h 0,00 h 0,0 UV-I 143 W/m 2,5 km/h (1 Bft)
26.02.2014 10:00 8,2 C 6,5 C 91 % 1014,9 hPa 0,0 l/m 0,00 h 0,00 h 0,0 UV-I 128 W/m 4,3 km/h (1 Bft)
26.02.2014 11:00 8,7 C 7,3 C 89 % 1015,5 hPa 0,0 l/m 0,00 h 0,00 h 0,0 UV-I 177 W/m 5,2 km/h (1 Bft)
26.02.2014 12:00 9,9 C 8,6 C 82 % 1015,9 hPa 0,0 l/m 0,57 h 0,00 h 0,5 UV-I 334 W/m 7,7 km/h (2 Bft)
26.02.2014 13:00 10,7 C 9,7 C 77 % 1015,9 hPa 0,0 l/m 0,50 h 0,00 h 0,5 UV-I 251 W/m 5,6 km/h (1 Bft)
26.02.2014 14:00 11,2 C 9,9 C 73 % 1016,0 hPa 0,0 l/m 0,63 h 0,00 h 0,5 UV-I 313 W/m 10,0 km/h (2 Bft)
26.02.2014 15:00 11,4 C 10,0 C 69 % 1016,1 hPa 0,0 l/m 0,60 h 0,00 h 0,0 UV-I 254 W/m 7,3 km/h (2 Bft)
26.02.2014 16:00 11,2 C 9,6 C 68 % 1016,4 hPa 0,0 l/m 0,77 h 0,00 h 0,0 UV-I 164 W/m 11,0 km/h (2 Bft)
26.02.2014 17:00 9,7 C 7,7 C 71 % 1017,0 hPa 0,0 l/m 0,03 h 0,00 h 0,0 UV-I 30 W/m 4,0 km/h (1 Bft)
26.02.2014 18:00 7,7 C 5,0 C 79 % 1017,6 hPa 0,0 l/m 0,00 h 0,00 h 0,0 UV-I 7 W/m 0,0 km/h (0 Bft)
26.02.2014 19:00 5,6 C 3,1 C 86 % 1018,4 hPa 0,0 l/m 0,00 h 0,00 h 0,0 UV-I 0 W/m 0,0 km/h (0 Bft)
26.02.2014 20:00 4,6 C 2,3 C 90 % 1018,8 hPa 0,0 l/m 0,00 h 0,00 h 0,0 UV-I 0 W/m 0,0 km/h (0 Bft)
26.02.2014 21:00 3,9 C 1,7 C 92 % 1019,1 hPa 0,0 l/m 0,00 h 0,00 h 0,0 UV-I 0 W/m 0,0 km/h (0 Bft)
26.02.2014 22:00 3,6 C 1,3 C 94 % 1019,3 hPa 0,0 l/m 0,00 h 0,00 h 0,0 UV-I 0 W/m 0,1 km/h (0 Bft)
26.02.2014 23:00 4,4 C 1,9 C 90 % 1019,3 hPa 0,0 l/m 0,00 h 0,00 h 0,0 UV-I 0 W/m 0,0 km/h (0 Bft)
27.02.2014 00:00 3,3 C 1,1 C 92 % 1019,4 hPa 0,0 l/m 0,00 h 0,00 h 0,0 UV-I 0 W/m 0,0 km/h (0 Bft)
27.02.2014 01:00 2,9 C 0,6 C 94 % 1019,3 hPa 0,0 l/m 0,00 h 0,00 h 0,0 UV-I 0 W/m 0,0 km/h (0 Bft)
27.02.2014 02:00 2,7 C 0,6 C 94 % 1019,2 hPa 0,0 l/m 0,00 h 0,00 h 0,0 UV-I 0 W/m 0,0 km/h (0 Bft)
27.02.2014 03:00 2,3 C 0,3 C 95 % 1018,7 hPa 0,0 l/m 0,00 h 0,00 h 0,0 UV-I 0 W/m 0,3 km/h (0 Bft)
27.02.2014 04:00 1,9 C 0,3 C 95 % 1018,3 hPa 0,0 l/m 0,00 h 0,00 h 0,0 UV-I 0 W/m 1,7 km/h (1 Bft)
27.02.2014 05:00 1,7 C 0,3 C 95 % 1018,1 hPa 0,0 l/m 0,00 h 0,00 h 0,0 UV-I 0 W/m 2,1 km/h (1 Bft)
27.02.2014 06:00 1,6 C 0,1 C 95 % 1017,8 hPa 0,0 l/m 0,00 h 0,00 h 0,0 UV-I 0 W/m 3,3 km/h (1 Bft)
27.02.2014 07:00 1,8 C 0,6 C 95 % 1017,2 hPa 0,2 l/m 0,10 h 0,00 h 0,0 UV-I 17 W/m 8,8 km/h (2 Bft)
27.02.2014 08:00 2,6 C 1,6 C 94 % 1016,6 hPa 0,0 l/m 0,07 h 0,00 h 0,0 UV-I 69 W/m 10,4 km/h (2 Bft)
27.02.2014 09:00 4,4 C 3,5 C 91 % 1015,9 hPa 0,0 l/m 0,67 h 0,00 h 0,0 UV-I 198 W/m 14,2 km/h (3 Bft)
27.02.2014 10:00 6,8 C 5,7 C 84 % 1014,8 hPa 0,0 l/m 0,60 h 0,00 h 0,0 UV-I 263 W/m 17,9 km/h (3 Bft)
27.02.2014 11:00 9,1 C 8,4 C 76 % 1013,6 hPa 0,0 l/m 0,87 h 0,00 h 0,5 UV-I 339 W/m 22,6 km/h (4 Bft)
27.02.2014 12:00 9,4 C 8,9 C 75 % 1012,6 hPa 0,0 l/m 0,33 h 0,00 h 0,0 UV-I 259 W/m 23,1 km/h (4 Bft)
27.02.2014 13:00 10,0 C 9,2 C 68 % 1011,4 hPa 0,0 l/m 0,30 h 0,00 h 0,5 UV-I 247 W/m 26,1 km/h (4 Bft)
27.02.2014 14:00 9,3 C 7,9 C 70 % 1010,5 hPa 0,0 l/m 0,00 h 0,30 h 0,0 UV-I 103 W/m 25,7 km/h (4 Bft)
27.02.2014 15:00 6,7 C 4,4 C 85 % 1010,6 hPa 1,8 l/m 0,00 h 1,00 h 0,0 UV-I 35 W/m 18,8 km/h (3 Bft)
27.02.2014 16:00 5,7 C 4,1 C 92 % 1010,0 hPa 1,2 l/m 0,00 h 1,00 h 0,0 UV-I 35 W/m 14,7 km/h (3 Bft)
27.02.2014 17:00 5,5 C 3,9 C 93 % 1009,2 hPa 1,0 l/m 0,00 h 1,00 h 0,0 UV-I 16 W/m 11,8 km/h (2 Bft)
27.02.2014 18:00 5,2 C 3,9 C 94 % 1009,0 hPa 0,6 l/m 0,00 h 0,90 h 0,0 UV-I 0 W/m 9,4 km/h (2 Bft)
27.02.2014 19:00 5,1 C 3,9 C 96 % 1008,9 hPa 0,0 l/m 0,00 h 0,47 h 0,0 UV-I 0 W/m 4,5 km/h (1 Bft)
27.02.2014 20:00 4,8 C 3,4 C 96 % 1008,9 hPa 0,0 l/m 0,00 h 0,00 h 0,0 UV-I 0 W/m 0,3 km/h (0 Bft)
27.02.2014 21:00 4,8 C 3,3 C 95 % 1008,7 hPa 0,0 l/m 0,00 h 0,00 h 0,0 UV-I 0 W/m 2,5 km/h (1 Bft)
27.02.2014 22:00 4,7 C 3,2 C 92 % 1008,3 hPa 0,0 l/m 0,00 h 0,00 h 0,0 UV-I 0 W/m 3,5 km/h (1 Bft)
27.02.2014 23:00 4,3 C 2,8 C 92 % 1007,9 hPa 0,0 l/m 0,00 h 0,00 h 0,0 UV-I 0 W/m 2,6 km/h (1 Bft)
28.02.2014 00:00 3,8 C 2,2 C 94 % 1007,7 hPa 0,2 l/m 0,00 h 0,00 h 0,0 UV-I 0 W/m 0,2 km/h (0 Bft)
28.02.2014 01:00 3,6 C 2,1 C 95 % 1007,3 hPa 0,0 l/m 0,00 h 0,00 h 0,0 UV-I 0 W/m 0,6 km/h (0 Bft)
28.02.2014 02:00 2,9 C 1,1 C 95 % 1006,7 hPa 0,0 l/m 0,00 h 0,00 h 0,0 UV-I 0 W/m 0,0 km/h (0 Bft)
28.02.2014 03:00 2,3 C 0,6 C 96 % 1006,1 hPa 0,0 l/m 0,00 h 0,00 h 0,0 UV-I 0 W/m 0,0 km/h (0 Bft)
28.02.2014 04:00 2,3 C 1,1 C 97 % 1005,6 hPa 0,0 l/m 0,00 h 0,10 h 0,0 UV-I 0 W/m 0,3 km/h (0 Bft)
28.02.2014 05:00 2,8 C 2,0 C 97 % 1005,0 hPa 0,0 l/m 0,00 h 0,37 h 0,0 UV-I 0 W/m 0,3 km/h (0 Bft)
28.02.2014 06:00 3,3 C 2,0 C 97 % 1004,2 hPa 0,0 l/m 0,00 h 0,10 h 0,0 UV-I 0 W/m 1,1 km/h (1 Bft)
28.02.2014 07:00 2,9 C 1,5 C 97 % 1003,7 hPa 0,0 l/m 0,00 h 0,00 h 0,0 UV-I 12 W/m 4,6 km/h (1 Bft)
28.02.2014 08:00 3,1 C 2,0 C 97 % 1003,3 hPa 0,0 l/m 0,30 h 0,00 h 0,0 UV-I 73 W/m 9,9 km/h (2 Bft)
28.02.2014 09:00 4,6 C 3,0 C 97 % 1002,5 hPa 0,0 l/m 1,00 h 0,00 h 0,0 UV-I 236 W/m 13,9 km/h (3 Bft)
28.02.2014 10:00 6,5 C 4,8 C 91 % 1002,1 hPa 0,0 l/m 0,77 h 0,00 h 0,5 UV-I 298 W/m 12,8 km/h (3 Bft)
28.02.2014 11:00 7,7 C 6,6 C 83 % 1001,6 hPa 0,0 l/m 0,20 h 0,00 h 0,6 UV-I 238 W/m 16,9 km/h (3 Bft)
28.02.2014 12:00 8,9 C 7,8 C 77 % 1000,8 hPa 0,0 l/m 0,53 h 0,00 h 0,5 UV-I 388 W/m 16,3 km/h (3 Bft)
28.02.2014 13:00 8,9 C 8,2 C 75 % 1000,2 hPa 0,0 l/m 0,20 h 0,00 h 0,7 UV-I 235 W/m 13,2 km/h (3 Bft)
28.02.2014 14:00 9,3 C 8,5 C 70 % 999,6 hPa 0,0 l/m 0,30 h 0,00 h 0,5 UV-I 227 W/m 14,8 km/h (3 Bft)
28.02.2014 15:00 9,3 C 8,4 C 70 % 999,4 hPa 0,0 l/m 0,13 h 0,00 h 0,0 UV-I 135 W/m 14,3 km/h (3 Bft)
28.02.2014 16:00 8,7 C 7,2 C 74 % 999,3 hPa 0,0 l/m 0,00 h 0,07 h 0,0 UV-I 41 W/m 9,5 km/h (2 Bft)
28.02.2014 17:00 8,3 C 6,7 C 76 % 999,2 hPa 0,0 l/m 0,00 h 0,00 h 0,0 UV-I 12 W/m 6,9 km/h (2 Bft)
28.02.2014 18:00 8,0 C 6,4 C 77 % 999,2 hPa 0,0 l/m 0,00 h 0,00 h 0,0 UV-I 7 W/m 7,9 km/h (2 Bft)
28.02.2014 19:00 7,8 C 6,1 C 76 % 999,4 hPa 0,0 l/m 0,00 h 0,07 h 0,0 UV-I 0 W/m 10,2 km/h (2 Bft)
28.02.2014 20:00 7,5 C 5,5 C 78 % 999,4 hPa 0,0 l/m 0,00 h 0,60 h 0,0 UV-I 0 W/m 6,8 km/h (2 Bft)
28.02.2014 21:00 7,1 C 4,6 C 83 % 999,4 hPa 0,2 l/m 0,00 h 0,60 h 0,0 UV-I 0 W/m 9,8 km/h (2 Bft)
28.02.2014 22:00 7,1 C 5,0 C 83 % 999,6 hPa 0,0 l/m 0,00 h 0,00 h 0,0 UV-I 0 W/m 8,7 km/h (2 Bft)
28.02.2014 23:00 6,9 C 5,6 C 85 % 999,7 hPa 0,0 l/m 0,00 h 0,00 h 0,0 UV-I 0 W/m 5,9 km/h (2 Bft)
01.03.2014 00:00 6,8 C 5,6 C 87 % 1000,0 hPa 0,0 l/m 0,00 h 0,00 h 0,0 UV-I 0 W/m 8,3 km/h (2 Bft)
01.03.2014 01:00 6,4 C 4,9 C 86 % 1000,4 hPa 0,0 l/m 0,00 h 0,00 h 0,0 UV-I 0 W/m 7,6 km/h (2 Bft)
01.03.2014 02:00 5,1 C 3,3 C 87 % 1000,8 hPa 0,0 l/m 0,00 h 0,00 h 0,0 UV-I 0 W/m 0,2 km/h (0 Bft)
01.03.2014 03:00 3,6 C 1,4 C 90 % 1000,6 hPa 0,0 l/m 0,00 h 0,00 h 0,0 UV-I 0 W/m 0,0 km/h (0 Bft)
01.03.2014 04:00 2,6 C 0,7 C 91 % 1000,6 hPa 0,0 l/m 0,00 h 0,00 h 0,0 UV-I 0 W/m 0,1 km/h (0 Bft)
01.03.2014 05:00 2,2 C 0,4 C 93 % 1000,8 hPa 0,0 l/m 0,00 h 0,00 h 0,0 UV-I 0 W/m 0,0 km/h (0 Bft)
01.03.2014 06:00 1,8 C -0,0 C 93 % 1001,0 hPa 0,0 l/m 0,00 h 0,00 h 0,0 UV-I 0 W/m 0,0 km/h (0 Bft)
01.03.2014 07:00 1,5 C 0,0 C 94 % 1001,2 hPa 0,0 l/m 0,00 h 0,00 h 0,0 UV-I 11 W/m 0,0 km/h (0 Bft)
01.03.2014 08:00 1,4 C 0,4 C 95 % 1001,2 hPa 0,0 l/m 0,00 h 0,00 h 0,0 UV-I 58 W/m 1,7 km/h (1 Bft)
01.03.2014 09:00 3,6 C 2,9 C 95 % 1001,5 hPa 0,0 l/m 0,57 h 0,00 h 0,0 UV-I 197 W/m 8,9 km/h (2 Bft)
01.03.2014 10:00 6,6 C 6,4 C 87 % 1001,3 hPa 0,0 l/m 0,97 h 0,00 h 0,0 UV-I 303 W/m 15,0 km/h (3 Bft)
01.03.2014 11:00 8,3 C 8,1 C 77 % 1001,0 hPa 0,0 l/m 0,67 h 0,00 h 0,7 UV-I 338 W/m 13,5 km/h (3 Bft)
01.03.2014 12:00 8,5 C 8,2 C 75 % 1000,6 hPa 0,0 l/m 0,47 h 0,00 h 0,6 UV-I 272 W/m 13,2 km/h (3 Bft)
01.03.2014 13:00 9,0 C 8,7 C 75 % 1000,4 hPa 0,0 l/m 0,57 h 0,00 h 0,7 UV-I 353 W/m 13,5 km/h (3 Bft)
01.03.2014 14:00 9,6 C 8,9 C 74 % 1000,0 hPa 0,0 l/m 0,37 h 0,13 h 0,8 UV-I 251 W/m 14,4 km/h (3 Bft)
01.03.2014 15:00 7,2 C 5,0 C 85 % 1000,0 hPa 2,0 l/m 0,00 h 0,63 h 0,0 UV-I 56 W/m 5,9 km/h (2 Bft)
01.03.2014 16:00 7,2 C 5,6 C 90 % 999,8 hPa 0,2 l/m 0,00 h 0,00 h 0,0 UV-I 54 W/m 1,5 km/h (1 Bft)
01.03.2014 17:00 7,0 C 4,6 C 85 % 1000,0 hPa 0,0 l/m 0,00 h 0,00 h 0,0 UV-I 27 W/m 6,8 km/h (2 Bft)
01.03.2014 18:00 5,7 C 3,2 C 88 % 1000,2 hPa 0,0 l/m 0,00 h 0,00 h 0,0 UV-I 5 W/m 0,0 km/h (0 Bft)
01.03.2014 19:00 4,2 C 2,0 C 93 % 1000,3 hPa 0,0 l/m 0,00 h 0,00 h 0,0 UV-I 0 W/m 0,0 km/h (0 Bft)
01.03.2014 20:00 4,5 C 3,1 C 95 % 1000,5 hPa 0,0 l/m 0,00 h 0,00 h 0,0 UV-I 0 W/m 0,3 km/h (0 Bft)
01.03.2014 21:00 5,1 C 3,3 C 92 % 1000,7 hPa 0,0 l/m 0,00 h 0,00 h 0,0 UV-I 0 W/m 0,0 km/h (0 Bft)
01.03.2014 22:00 5,0 C 2,9 C 91 % 1001,0 hPa 0,0 l/m 0,00 h 0,00 h 0,0 UV-I 0 W/m 0,0 km/h (0 Bft)
01.03.2014 23:00 4,8 C 3,2 C 92 % 1001,3 hPa 0,0 l/m 0,00 h 0,00 h 0,0 UV-I 0 W/m 1,5 km/h (1 Bft)
02.03.2014 00:00 5,1 C 3,8 C 92 % 1001,3 hPa 0,0 l/m 0,00 h 0,00 h 0,0 UV-I 0 W/m 4,2 km/h (1 Bft)
02.03.2014 01:00 4,9 C 3,5 C 94 % 1001,6 hPa 0,0 l/m 0,00 h 0,00 h 0,0 UV-I 0 W/m 2,3 km/h (1 Bft)
02.03.2014 02:00 4,5 C 3,2 C 94 % 1001,8 hPa 0,0 l/m 0,00 h 0,00 h 0,0 UV-I 0 W/m 3,6 km/h (1 Bft)
02.03.2014 03:00 4,0 C 2,6 C 94 % 1001,8 hPa 0,0 l/m 0,00 h 0,00 h 0,0 UV-I 0 W/m 3,4 km/h (1 Bft)
02.03.2014 04:00 3,4 C 1,9 C 95 % 1002,1 hPa 0,0 l/m 0,00 h 0,00 h 0,0 UV-I 0 W/m 1,0 km/h (0 Bft)
02.03.2014 05:00 2,9 C 1,7 C 95 % 1002,5 hPa 0,0 l/m 0,00 h 0,00 h 0,0 UV-I 0 W/m 0,8 km/h (0 Bft)
02.03.2014 06:00 2,6 C 1,2 C 95 % 1002,9 hPa 0,0 l/m 0,00 h 0,00 h 0,0 UV-I 0 W/m 1,2 km/h (1 Bft)
02.03.2014 07:00 2,2 C 0,7 C 95 % 1003,4 hPa 0,0 l/m 0,00 h 0,00 h 0,0 UV-I 15 W/m 0,1 km/h (0 Bft)
02.03.2014 08:00 2,5 C 1,6 C 96 % 1004,1 hPa 0,0 l/m 0,50 h 0,00 h 0,0 UV-I 89 W/m 1,5 km/h (1 Bft)
02.03.2014 09:00 4,4 C 3,1 C 94 % 1004,6 hPa 0,0 l/m 1,00 h 0,00 h 0,0 UV-I 231 W/m 7,3 km/h (2 Bft)
02.03.2014 10:00 6,4 C 5,0 C 84 % 1004,6 hPa 0,0 l/m 0,87 h 0,00 h 0,5 UV-I 321 W/m 10,4 km/h (2 Bft)
02.03.2014 11:00 8,1 C 7,0 C 75 % 1004,3 hPa 0,0 l/m 1,00 h 0,00 h 0,6 UV-I 510 W/m 13,0 km/h (3 Bft)
02.03.2014 12:00 8,6 C 7,5 C 69 % 1004,1 hPa 0,0 l/m 0,53 h 0,00 h 0,8 UV-I 341 W/m 11,0 km/h (2 Bft)
02.03.2014 13:00 9,2 C 7,8 C 62 % 1003,3 hPa 0,0 l/m 0,67 h 0,00 h 0,9 UV-I 418 W/m 12,7 km/h (3 Bft)
02.03.2014 14:00 9,6 C 8,3 C 60 % 1002,6 hPa 0,0 l/m 0,60 h 0,00 h 0,7 UV-I 377 W/m 13,7 km/h (3 Bft)
02.03.2014 15:00 9,7 C 8,5 C 61 % 1002,1 hPa 0,0 l/m 0,53 h 0,00 h 0,0 UV-I 245 W/m 14,6 km/h (3 Bft)
02.03.2014 16:00 9,6 C 8,0 C 62 % 1001,3 hPa 0,0 l/m 0,70 h 0,00 h 0,0 UV-I 181 W/m 11,0 km/h (2 Bft)
02.03.2014 17:00 7,9 C 6,1 C 64 % 1000,6 hPa 0,0 l/m 0,00 h 0,00 h 0,0 UV-I 39 W/m 8,0 km/h (2 Bft)
02.03.2014 18:00 6,6 C 4,4 C 68 % 1000,3 hPa 0,0 l/m 0,00 h 0,00 h 0,0 UV-I 8 W/m 9,5 km/h (2 Bft)
02.03.2014 19:00 5,1 C 3,5 C 75 % 999,4 hPa 0,0 l/m 0,00 h 0,00 h 0,0 UV-I 0 W/m 18,6 km/h (3 Bft)
02.03.2014 20:00 4,8 C 3,3 C 76 % 998,7 hPa 0,0 l/m 0,00 h 0,00 h 0,0 UV-I 0 W/m 17,6 km/h (3 Bft)
02.03.2014 21:00 4,3 C 2,6 C 77 % 997,7 hPa 0,0 l/m 0,00 h 0,00 h 0,0 UV-I 0 W/m 11,8 km/h (2 Bft)
02.03.2014 22:00 4,1 C 2,3 C 78 % 996,6 hPa 0,0 l/m 0,00 h 0,00 h 0,0 UV-I 0 W/m 14,4 km/h (3 Bft)
02.03.2014 23:00 3,8 C 2,2 C 81 % 995,4 hPa 0,0 l/m 0,00 h 0,00 h 0,0 UV-I 0 W/m 17,5 km/h (3 Bft)
Min-Datum _ 01.03.14 27.02.14 24.02.14 02.03.14 - - - - - 24.02.14
_ Min-Zeit 08:22 06:00 15:20 23:56 - - - - - 00:38
Minimum _ 1,2 C -0,6 C 50 % 994,8 hPa - - - - - 0,0 km/h (0 Bft)
Max-Datum _ 24.02.14 24.02.14 28.02.14 26.02.14 01.03.14 24.02.14 25.02.14 28.02.14 01.03.14 27.02.14
_ Max-Zeit 14:58 14:54 09:08 22:06 15:26 07:42 21:50 13:10 14:02 14:16
Maximum _ 15,4 C 13,3 C 98 % 1019,4 hPa 2,0 l/m 0,03 h 0,03 h 1,0 UV-I 712 W/m 48,9 km/h
S (6 Bft)
Durchschnitt _ 6,6 C 5,0 C 84 % 1007,8 hPa #9,8 l/m #28:42 h #11:16 h 0,6 UV-I 164 W/m 8,7 km/h (2 Bft)
© 2014 W. Hausmann